Time;durP1;ratioP1;P1;durP2;ratioP2;P2;SDS_P1;SDS_P2;PMS_P1;PMS_P2;Temp;Humidity;BMP_temperature;BMP_pressure;BME280_temperature;BME280_humidity;BME280_pressure;Samples;Min_cycle;Max_cycle;Signal;HPM_P1;HPM_P2
2021/08/06 00:02:04;;;;;;;0.80;0.55;;;24.30;58.40;;;;;;6240804;28;20113;-70
2021/08/06 00:05:05;;;;;;;0.60;0.60;;;24.30;58.40;;;;;;6240738;28;20025;-69
2021/08/06 00:08:05;;;;;;;0.60;0.60;;;24.30;58.50;;;;;;6240696;28;20034;-70
2021/08/06 00:11:06;;;;;;;0.95;0.52;;;24.30;58.40;;;;;;6240890;28;20073;-70
2021/08/06 00:14:07;;;;;;;0.60;0.50;;;24.30;58.50;;;;;;6230191;28;20113;-70
2021/08/06 00:17:07;;;;;;;0.75;0.50;;;24.30;58.50;;;;;;6232628;28;20025;-70
2021/08/06 00:20:08;;;;;;;0.40;0.40;;;24.30;58.50;;;;;;6240767;28;20152;-69
2021/08/06 00:23:09;;;;;;;1.95;0.50;;;24.30;58.50;;;;;;6240104;28;20171;-70
2021/08/06 00:26:10;;;;;;;0.50;0.50;;;24.30;58.50;;;;;;6242228;28;20488;-70
2021/08/06 00:29:11;;;;;;;0.50;0.50;;;24.30;58.50;;;;;;6245460;28;20033;-69
2021/08/06 00:32:12;;;;;;;0.90;0.50;;;24.30;59.10;;;;;;6244521;28;20083;-70
2021/08/06 00:35:12;;;;;;;0.47;0.40;;;24.30;58.50;;;;;;6245217;28;20099;-70
2021/08/06 00:38:13;;;;;;;0.40;0.32;;;24.30;58.50;;;;;;6244870;28;20395;-70
2021/08/06 00:41:13;;;;;;;0.63;0.50;;;24.30;58.50;;;;;;6244852;28;20037;-70
2021/08/06 00:44:14;;;;;;;0.40;0.40;;;24.30;58.50;;;;;;6245132;28;20422;-70
2021/08/06 00:47:15;;;;;;;0.40;0.40;;;24.30;58.50;;;;;;6245157;28;20029;-70
2021/08/06 00:50:16;;;;;;;0.40;0.40;;;24.30;58.50;;;;;;6244584;28;20044;-70
2021/08/06 00:53:17;;;;;;;1.65;0.50;;;24.30;58.50;;;;;;6244405;28;20396;-69
2021/08/06 00:56:18;;;;;;;0.40;0.40;;;24.30;58.50;;;;;;6244397;28;20361;-69
2021/08/06 00:59:18;;;;;;;2.20;0.40;;;24.30;58.50;;;;;;6244851;28;20029;-69
2021/08/06 01:02:28;;;;;;;0.50;0.50;;;24.30;58.50;;;;;;6243847;28;20025;-70
2021/08/06 01:05:32;;;;;;;0.60;0.60;;;24.30;58.50;;;;;;6244064;28;20116;-70
2021/08/06 01:08:44;;;;;;;0.60;0.60;;;24.30;58.70;;;;;;6244024;28;20037;-70
2021/08/06 01:11:49;;;;;;;0.60;0.60;;;24.30;58.50;;;;;;6242912;28;20034;-70
2021/08/06 01:14:50;;;;;;;0.52;0.52;;;24.30;58.50;;;;;;6227706;28;20092;-69
2021/08/06 01:17:52;;;;;;;0.40;0.40;;;24.30;58.50;;;;;;6229020;28;20419;-70
2021/08/06 01:21:03;;;;;;;0.60;0.40;;;24.30;58.50;;;;;;6244717;28;20038;-70
2021/08/06 01:24:08;;;;;;;0.70;0.50;;;24.40;58.50;;;;;;6243905;28;20071;-70
2021/08/06 01:27:10;;;;;;;0.70;0.52;;;24.30;58.70;;;;;;6244051;28;20100;-70
2021/08/06 01:30:11;;;;;;;0.45;0.38;;;24.40;58.60;;;;;;6244055;28;20493;-69
2021/08/06 01:33:14;;;;;;;0.70;0.50;;;24.30;58.50;;;;;;6244376;28;20109;-69
2021/08/06 01:36:14;;;;;;;0.50;0.50;;;24.30;58.50;;;;;;6243881;28;20020;-69
2021/08/06 01:39:16;;;;;;;0.60;0.60;;;24.30;58.50;;;;;;6242828;28;20580;-69
2021/08/06 01:42:52;;;;;;;0.52;0.47;;;24.30;58.50;;;;;;6243372;28;20020;-69
2021/08/06 01:45:57;;;;;;;;;;;24.30;58.50;;;;;;6225190;28;20036;-69
2021/08/06 01:49:07;;;;;;;0.65;0.40;;;24.30;58.50;;;;;;6243305;28;19928;-69
2021/08/06 01:52:17;;;;;;;0.50;0.50;;;24.40;58.60;;;;;;6243463;28;20029;-69
2021/08/06 01:55:19;;;;;;;0.40;0.40;;;24.30;58.50;;;;;;6242906;28;20504;-69
2021/08/06 01:58:21;;;;;;;0.73;0.60;;;24.30;58.50;;;;;;6242986;28;20441;-69
2021/08/06 02:01:23;;;;;;;0.55;0.50;;;24.30;58.50;;;;;;6243509;28;20072;-69
2021/08/06 02:04:25;;;;;;;0.60;0.50;;;24.30;58.50;;;;;;6242856;28;20033;-70
2021/08/06 02:07:25;;;;;;;0.95;0.60;;;24.30;58.50;;;;;;6242751;28;20652;-69
2021/08/06 02:10:29;;;;;;;0.40;0.40;;;24.30;58.50;;;;;;6243104;28;20060;-69
2021/08/06 02:13:29;;;;;;;0.52;0.50;;;24.30;58.50;;;;;;6237471;28;20034;-69
2021/08/06 02:16:30;;;;;;;0.70;0.60;;;24.30;58.50;;;;;;6218197;28;20041;-69
2021/08/06 02:19:32;;;;;;;0.43;0.40;;;24.30;58.50;;;;;;6235939;28;20025;-69
2021/08/06 02:22:34;;;;;;;0.47;0.38;;;24.30;58.50;;;;;;6243105;28;20041;-69
2021/08/06 02:25:37;;;;;;;0.30;0.30;;;24.30;58.50;;;;;;6242572;28;20314;-69
2021/08/06 02:28:40;;;;;;;0.40;0.40;;;24.30;58.50;;;;;;6242391;28;20088;-69
2021/08/06 02:31:43;;;;;;;0.30;0.30;;;24.30;58.50;;;;;;6242688;28;20882;-69
2021/08/06 02:34:44;;;;;;;0.40;0.40;;;24.30;58.50;;;;;;6242438;28;20108;-69
2021/08/06 02:37:46;;;;;;;0.60;0.50;;;24.30;58.50;;;;;;6242272;28;20504;-69
2021/08/06 02:40:47;;;;;;;0.82;0.47;;;24.30;58.50;;;;;;6241746;28;20037;-69
2021/08/06 02:43:48;;;;;;;0.50;0.50;;;24.30;58.50;;;;;;6242135;28;20032;-69
2021/08/06 02:46:48;;;;;;;0.50;0.50;;;24.30;58.50;;;;;;6242289;28;20052;-69
2021/08/06 02:49:49;;;;;;;0.60;0.40;;;24.30;58.50;;;;;;6241480;28;20044;-69
2021/08/06 02:52:50;;;;;;;0.40;0.40;;;24.30;58.50;;;;;;6241780;28;20017;-69
2021/08/06 02:55:50;;;;;;;0.55;0.40;;;24.30;58.50;;;;;;6241684;28;20084;-69
2021/08/06 02:58:51;;;;;;;0.95;0.70;;;24.30;58.50;;;;;;6241452;28;20026;-69
2021/08/06 03:01:52;;;;;;;0.77;0.40;;;24.40;58.70;;;;;;6241762;28;20465;-69
2021/08/06 03:04:52;;;;;;;0.40;0.40;;;24.30;58.50;;;;;;6241847;28;20099;-69
2021/08/06 03:07:53;;;;;;;0.57;0.30;;;24.30;58.50;;;;;;6241904;28;20029;-69
2021/08/06 03:10:53;;;;;;;0.40;0.40;;;24.30;58.60;;;;;;6241342;28;20033;-69
2021/08/06 03:13:54;;;;;;;0.75;0.50;;;24.30;58.50;;;;;;6232746;28;20029;-69
2021/08/06 03:16:54;;;;;;;1.05;0.50;;;24.30;58.50;;;;;;6237963;28;20033;-69
2021/08/06 03:19:55;;;;;;;0.30;0.30;;;24.30;58.50;;;;;;6241409;28;20088;-69
2021/08/06 03:22:56;;;;;;;0.55;0.50;;;24.30;58.50;;;;;;6241604;28;20021;-69
2021/08/06 03:25:57;;;;;;;0.30;0.30;;;24.30;58.50;;;;;;6241369;28;20048;-69
2021/08/06 03:28:57;;;;;;;0.60;0.50;;;24.30;58.50;;;;;;6240941;28;20053;-69
2021/08/06 03:31:58;;;;;;;0.32;0.32;;;24.30;58.50;;;;;;6240923;28;20358;-69
2021/08/06 03:34:58;;;;;;;0.50;0.40;;;24.30;58.60;;;;;;6241109;28;20100;-69
2021/08/06 03:37:59;;;;;;;0.77;0.40;;;24.30;58.60;;;;;;6241145;28;20505;-69
2021/08/06 03:40:59;;;;;;;0.55;0.50;;;24.30;58.60;;;;;;6240859;28;20051;-69
2021/08/06 03:44:00;;;;;;;0.40;0.40;;;24.30;58.60;;;;;;6240862;28;20114;-69
2021/08/06 03:47:00;;;;;;;0.50;0.50;;;24.30;58.60;;;;;;6240880;28;20025;-69
2021/08/06 03:50:02;;;;;;;0.40;0.40;;;24.30;58.60;;;;;;6241017;28;20090;-69
2021/08/06 03:53:03;;;;;;;0.50;0.50;;;24.30;58.60;;;;;;6240705;28;20723;-69
2021/08/06 03:56:03;;;;;;;0.60;0.57;;;24.30;58.60;;;;;;6240865;28;20240;-69
2021/08/06 04:03:01;;;;;;;0.77;0.50;;;24.30;58.60;;;;;;6246315;28;20033;-69
2021/08/06 04:06:02;;;;;;;0.57;0.50;;;24.30;58.60;;;;;;6245670;28;20495;-69
2021/08/06 04:09:02;;;;;;;0.38;0.38;;;24.30;58.60;;;;;;6245790;28;20037;-69
2021/08/06 04:12:03;;;;;;;0.73;0.60;;;24.30;58.60;;;;;;6245460;28;20033;-69
2021/08/06 04:15:04;;;;;;;0.35;0.35;;;24.30;58.60;;;;;;6227573;28;20033;-69
2021/08/06 04:18:05;;;;;;;0.80;0.50;;;24.30;58.60;;;;;;6242729;28;20213;-69
2021/08/06 04:21:06;;;;;;;0.40;0.40;;;24.30;58.60;;;;;;6245623;28;20018;-68
2021/08/06 04:24:06;;;;;;;0.50;0.50;;;24.30;58.60;;;;;;6245307;28;20542;-69
2021/08/06 04:27:07;;;;;;;0.40;0.40;;;24.30;58.60;;;;;;6245277;28;20056;-69
2021/08/06 04:30:09;;;;;;;0.50;0.40;;;24.30;58.60;;;;;;6245114;28;20033;-69
2021/08/06 04:33:09;;;;;;;0.50;0.50;;;24.30;58.60;;;;;;6243609;28;20029;-69
2021/08/06 04:36:10;;;;;;;0.50;0.50;;;24.30;59.30;;;;;;6244573;28;20033;-69
2021/08/06 04:39:11;;;;;;;0.88;0.55;;;24.30;58.60;;;;;;6245069;28;20041;-69
2021/08/06 04:42:11;;;;;;;0.50;0.50;;;24.30;58.60;;;;;;6244413;28;20091;-69
2021/08/06 04:45:13;;;;;;;0.50;0.40;;;24.30;58.60;;;;;;6245240;28;20447;-69
2021/08/06 04:48:17;;;;;;;0.68;0.40;;;24.30;58.60;;;;;;6244685;28;20397;-69
2021/08/06 04:51:18;;;;;;;0.50;0.50;;;24.30;58.60;;;;;;6244987;28;20021;-69
2021/08/06 04:54:18;;;;;;;0.60;0.57;;;24.30;58.60;;;;;;6244929;28;20104;-69
2021/08/06 04:57:19;;;;;;;0.40;0.40;;;24.30;58.60;;;;;;6244528;28;20448;-69
2021/08/06 05:00:20;;;;;;;0.40;0.40;;;24.30;58.60;;;;;;6244330;28;20071;-69
2021/08/06 05:03:20;;;;;;;0.40;0.40;;;24.30;58.50;;;;;;6242933;28;20175;-69
2021/08/06 05:06:21;;;;;;;0.50;0.43;;;24.30;58.50;;;;;;6245025;28;20033;-70
2021/08/06 05:09:21;;;;;;;0.60;0.40;;;24.30;58.50;;;;;;6244321;28;20444;-69
2021/08/06 05:12:22;;;;;;;0.40;0.40;;;24.30;58.50;;;;;;6242778;28;20041;-69
2021/08/06 05:15:23;;;;;;;0.40;0.30;;;24.30;58.50;;;;;;6223615;28;20069;-69
2021/08/06 05:18:24;;;;;;;0.40;0.40;;;24.30;58.50;;;;;;6230730;28;20064;-69
2021/08/06 05:21:24;;;;;;;0.52;0.52;;;24.30;58.50;;;;;;6244206;28;20033;-69
2021/08/06 05:24:25;;;;;;;0.52;0.50;;;24.30;58.50;;;;;;6244024;28;20025;-69
2021/08/06 05:27:25;;;;;;;0.57;0.47;;;24.30;58.50;;;;;;6243916;28;20028;-69
2021/08/06 05:30:26;;;;;;;0.40;0.40;;;24.30;58.50;;;;;;6243767;28;20041;-69
2021/08/06 05:33:27;;;;;;;0.40;0.40;;;24.30;58.50;;;;;;6243552;28;20025;-69
2021/08/06 05:36:27;;;;;;;0.52;0.52;;;24.30;58.50;;;;;;6243436;28;20033;-69
2021/08/06 05:39:27;;;;;;;0.55;0.50;;;24.30;58.50;;;;;;6243898;28;20033;-69
2021/08/06 05:42:28;;;;;;;0.30;0.30;;;24.30;58.50;;;;;;6243923;28;20029;-69
2021/08/06 05:45:29;;;;;;;0.32;0.32;;;24.30;58.50;;;;;;6243452;28;20480;-69
2021/08/06 05:48:29;;;;;;;0.40;0.40;;;24.40;58.50;;;;;;6243888;28;20037;-72
2021/08/06 05:51:30;;;;;;;0.85;0.55;;;24.30;58.50;;;;;;6243145;28;20029;-69
2021/08/06 05:54:30;;;;;;;0.35;0.35;;;24.30;58.50;;;;;;6243156;28;20653;-69
2021/08/06 05:57:31;;;;;;;0.40;0.40;;;24.30;58.50;;;;;;6242819;28;20160;-69
2021/08/06 06:00:32;;;;;;;0.60;0.43;;;24.30;58.50;;;;;;6237846;28;20112;-69
2021/08/06 06:03:33;;;;;;;0.50;0.43;;;24.40;58.50;;;;;;6229673;28;20155;-69
2021/08/06 06:06:33;;;;;;;0.40;0.40;;;24.30;58.50;;;;;;6246260;28;20021;-69
2021/08/06 06:09:34;;;;;;;0.50;0.50;;;24.30;58.50;;;;;;6240710;28;20033;-71
2021/08/06 06:12:34;;;;;;;0.50;0.50;;;24.30;58.50;;;;;;6245984;28;20530;-72
2021/08/06 06:15:35;;;;;;;0.50;0.50;;;24.30;58.40;;;;;;6243632;28;20037;-69
2021/08/06 06:18:35;;;;;;;0.30;0.30;;;24.30;58.40;;;;;;6245583;28;20022;-68
2021/08/06 06:21:36;;;;;;;0.55;0.55;;;24.30;58.40;;;;;;6246009;28;20519;-69
2021/08/06 06:24:36;;;;;;;0.63;0.63;;;24.30;58.50;;;;;;6244807;28;20461;-68
2021/08/06 06:27:54;;;;;;;0.77;0.40;;;24.30;58.40;;;;;;6245461;28;20444;-69
2021/08/06 06:30:54;;;;;;;0.80;0.50;;;24.30;58.40;;;;;;6245416;28;20079;-69
2021/08/06 06:33:55;;;;;;;0.40;0.40;;;24.30;58.40;;;;;;6245191;28;20132;-69
2021/08/06 06:36:56;;;;;;;0.40;0.40;;;24.30;58.40;;;;;;6244681;28;20030;-69
2021/08/06 06:39:56;;;;;;;0.65;0.65;;;24.30;58.40;;;;;;6243747;28;20017;-69
2021/08/06 06:42:57;;;;;;;0.63;0.50;;;24.30;58.40;;;;;;6244985;28;20431;-69
2021/08/06 06:45:57;;;;;;;0.52;0.50;;;24.40;58.50;;;;;;6244619;28;20033;-69
2021/08/06 06:48:58;;;;;;;0.50;0.50;;;24.30;58.40;;;;;;6244941;28;20412;-69
2021/08/06 06:51:59;;;;;;;0.35;0.35;;;24.30;58.40;;;;;;6244994;28;20032;-69
2021/08/06 06:55:00;;;;;;;0.40;0.40;;;24.30;58.40;;;;;;6244561;28;20454;-69
2021/08/06 06:58:00;;;;;;;0.50;0.50;;;24.30;58.40;;;;;;6244805;28;20100;-69
2021/08/06 07:01:01;;;;;;;1.13;0.43;;;24.40;58.50;;;;;;6244519;28;20032;-70
2021/08/06 07:04:01;;;;;;;0.65;0.50;;;24.30;58.40;;;;;;6244243;28;20040;-71
2021/08/06 07:07:02;;;;;;;0.43;0.40;;;24.30;58.40;;;;;;6244108;28;20358;-70
2021/08/06 07:10:04;;;;;;;0.80;0.40;;;24.40;58.50;;;;;;6244406;28;20069;-69
2021/08/06 07:13:05;;;;;;;0.40;0.40;;;24.40;58.50;;;;;;6242522;28;20031;-69
2021/08/06 07:16:06;;;;;;;0.47;0.40;;;24.30;58.40;;;;;;6233742;28;20364;-69
2021/08/06 07:19:07;;;;;;;0.40;0.40;;;24.30;58.40;;;;;;6244300;28;20037;-69
2021/08/06 07:22:08;;;;;;;0.50;0.50;;;24.30;58.40;;;;;;6244339;28;20063;-69
2021/08/06 07:25:10;;;;;;;0.40;0.40;;;24.40;58.50;;;;;;6243925;28;20272;-70
2021/08/06 07:28:11;;;;;;;0.50;0.50;;;24.30;58.40;;;;;;6245026;28;20033;-69
2021/08/06 07:31:11;;;;;;;0.47;0.47;;;24.30;58.40;;;;;;6244186;28;20064;-70
2021/08/06 07:34:12;;;;;;;0.50;0.40;;;24.30;58.40;;;;;;6244710;28;20502;-69
2021/08/06 07:37:12;;;;;;;0.40;0.40;;;24.30;58.40;;;;;;6244109;28;20025;-69
2021/08/06 07:40:15;;;;;;;0.60;0.40;;;24.30;58.30;;;;;;6244539;28;20029;-69
2021/08/06 07:43:16;;;;;;;0.28;0.28;;;24.30;58.30;;;;;;6244143;28;20031;-69
2021/08/06 07:46:16;;;;;;;0.63;0.60;;;24.40;58.40;;;;;;6244336;28;20508;-69
2021/08/06 07:49:17;;;;;;;0.38;0.38;;;24.40;58.40;;;;;;6244249;28;20040;-69
2021/08/06 07:52:17;;;;;;;0.43;0.43;;;24.40;58.40;;;;;;6243787;28;20026;-69
2021/08/06 07:55:18;;;;;;;0.60;0.60;;;24.40;58.50;;;;;;6243283;28;20176;-69
2021/08/06 07:58:19;;;;;;;0.50;0.40;;;24.40;58.40;;;;;;6243977;28;20037;-69
2021/08/06 08:01:20;;;;;;;0.70;0.40;;;24.40;58.40;;;;;;6243688;28;20057;-69
2021/08/06 08:04:21;;;;;;;0.50;0.40;;;24.40;58.40;;;;;;6244218;28;20420;-69
2021/08/06 08:07:22;;;;;;;0.50;0.50;;;24.40;58.40;;;;;;6243493;28;20104;-69
2021/08/06 08:10:23;;;;;;;1.00;0.40;;;24.40;58.40;;;;;;6243869;28;20533;-69
2021/08/06 08:13:23;;;;;;;0.55;0.45;;;24.30;58.30;;;;;;6218085;28;20038;-69
2021/08/06 08:16:24;;;;;;;0.40;0.40;;;24.40;58.40;;;;;;6242206;28;20025;-69
2021/08/06 08:19:25;;;;;;;0.40;0.40;;;24.40;58.40;;;;;;6241959;28;20036;-69
2021/08/06 08:22:26;;;;;;;2.83;0.50;;;24.40;58.40;;;;;;6241630;28;20071;-70
2021/08/06 08:25:26;;;;;;;1.30;1.08;;;24.40;58.40;;;;;;6242057;28;20051;-70
2021/08/06 08:28:27;;;;;;;0.50;0.50;;;24.40;57.70;;;;;;6241624;28;20072;-70
2021/08/06 08:31:27;;;;;;;4.82;1.95;;;24.30;57.70;;;;;;6238164;28;20026;-70
2021/08/06 08:34:28;;;;;;;1.73;1.25;;;24.30;57.20;;;;;;6241961;28;20033;-69
2021/08/06 08:37:28;;;;;;;3.78;1.65;;;24.30;57.20;;;;;;6241425;28;20030;-70
2021/08/06 08:40:29;;;;;;;3.70;1.92;;;24.30;57.10;;;;;;6241932;28;20104;-70
2021/08/06 08:43:30;;;;;;;2.20;1.58;;;24.30;56.50;;;;;;6241232;28;20075;-70
2021/08/06 08:46:32;;;;;;;2.13;1.90;;;24.20;55.20;;;;;;6242265;28;20029;-69
2021/08/06 08:49:34;;;;;;;3.53;1.70;;;24.30;56.10;;;;;;6246318;28;20060;-70
2021/08/06 08:52:35;;;;;;;4.88;1.90;;;24.20;54.70;;;;;;6246839;28;20021;-69
2021/08/06 08:55:39;;;;;;;4.45;1.90;;;24.20;55.20;;;;;;6246530;28;20195;-69
2021/08/06 08:58:40;;;;;;;3.70;2.33;;;24.20;55.60;;;;;;6246134;28;20060;-70
2021/08/06 09:01:41;;;;;;;7.70;1.90;;;24.30;55.50;;;;;;6243690;28;20387;-70
2021/08/06 09:04:48;;;;;;;2.42;1.80;;;24.30;55.70;;;;;;6247771;28;20434;-70
2021/08/06 09:07:49;;;;;;;2.33;1.55;;;24.40;56.00;;;;;;6246785;28;20476;-70
2021/08/06 09:10:50;;;;;;;4.25;1.85;;;24.40;56.30;;;;;;6247073;28;20526;-69
2021/08/06 09:13:50;;;;;;;2.55;1.95;;;24.40;56.20;;;;;;6238481;28;20026;-69
2021/08/06 09:17:13;;;;;;;5.18;1.73;;;24.30;56.10;;;;;;6246406;28;20100;-70
2021/08/06 09:20:13;;;;;;;4.68;1.85;;;24.40;56.40;;;;;;6247041;28;20523;-69
2021/08/06 09:23:53;;;;;;;2.33;1.52;;;24.30;56.50;;;;;;6246304;28;20050;-70
2021/08/06 09:26:53;;;;;;;2.50;1.70;;;24.40;56.60;;;;;;6246703;28;20574;-70
2021/08/06 09:29:56;;;;;;;2.85;1.50;;;24.30;56.60;;;;;;6246526;28;20042;-70
2021/08/06 09:32:57;;;;;;;2.70;1.75;;;24.30;56.60;;;;;;6246654;28;20221;-70
2021/08/06 09:36:16;;;;;;;4.40;1.83;;;24.30;56.70;;;;;;6246869;28;20041;-70
2021/08/06 09:39:17;;;;;;;4.50;1.77;;;24.40;56.80;;;;;;6246364;28;20026;-70
2021/08/06 09:42:27;;;;;;;2.05;1.65;;;24.40;56.90;;;;;;6245518;28;20024;-70
2021/08/06 09:45:38;;;;;;;1.73;1.38;;;24.30;56.80;;;;;;6246873;28;20021;-70
2021/08/06 09:48:38;;;;;;;1.65;1.50;;;24.30;56.90;;;;;;6246126;28;20034;-70
2021/08/06 09:51:41;;;;;;;2.28;1.40;;;24.30;57.00;;;;;;6246514;28;20249;-70
2021/08/06 09:54:48;;;;;;;3.33;1.52;;;24.30;57.00;;;;;;6244642;28;20039;-70
2021/08/06 09:57:51;;;;;;;1.95;1.65;;;24.40;57.10;;;;;;6245550;28;20566;-70
2021/08/06 10:00:55;;;;;;;4.57;1.63;;;24.30;57.00;;;;;;6246051;28;20033;-70
2021/08/06 10:04:13;;;;;;;1.50;1.30;;;24.30;57.00;;;;;;6245347;28;20036;-70
2021/08/06 10:07:15;;;;;;;2.47;1.50;;;24.30;57.10;;;;;;6245819;28;20045;-70
2021/08/06 10:10:18;;;;;;;1.92;1.50;;;24.30;57.00;;;;;;6245668;28;20495;-70
2021/08/06 10:13:19;;;;;;;1.58;1.13;;;24.40;57.20;;;;;;6242967;28;20026;-70
2021/08/06 10:16:19;;;;;;;1.65;1.42;;;24.30;57.20;;;;;;6245313;28;20032;-70
2021/08/06 10:19:20;;;;;;;2.33;1.20;;;24.40;57.30;;;;;;6245323;28;20029;-70
2021/08/06 10:22:21;;;;;;;1.55;1.30;;;24.40;57.30;;;;;;6245936;28;20051;-70
2021/08/06 10:25:24;;;;;;;1.63;1.40;;;24.40;57.30;;;;;;6244941;28;20072;-70
2021/08/06 10:28:26;;;;;;;1.75;1.48;;;24.30;57.20;;;;;;6245278;28;20277;-70
2021/08/06 10:31:27;;;;;;;1.65;1.48;;;24.30;57.30;;;;;;6245198;28;20037;-70
2021/08/06 10:34:27;;;;;;;1.55;1.35;;;24.30;57.30;;;;;;6245226;28;20028;-70
2021/08/06 10:38:05;;;;;;;1.83;1.35;;;24.40;57.40;;;;;;6244895;28;20014;-70
2021/08/06 10:41:17;;;;;;;1.40;1.17;;;24.30;57.30;;;;;;6244883;28;20496;-70
2021/08/06 10:44:18;;;;;;;1.73;1.55;;;24.40;57.50;;;;;;6244803;28;20025;-70
2021/08/06 10:47:18;;;;;;;2.13;1.50;;;24.40;57.50;;;;;;6244725;28;20083;-70
2021/08/06 10:50:21;;;;;;;1.92;1.33;;;24.40;57.50;;;;;;6244449;28;20112;-70
2021/08/06 10:53:24;;;;;;;1.95;1.30;;;24.30;57.40;;;;;;6244454;28;20764;-70
2021/08/06 10:56:30;;;;;;;1.55;1.17;;;24.30;57.40;;;;;;6244486;28;20426;-70
2021/08/06 10:59:38;;;;;;;1.88;1.25;;;24.40;57.50;;;;;;6244279;28;20031;-70
2021/08/06 11:02:42;;;;;;;1.30;1.20;;;24.30;57.40;;;;;;6244724;28;20068;-70
2021/08/06 11:05:44;;;;;;;1.20;1.10;;;24.40;57.50;;;;;;6243210;28;20025;-70
2021/08/06 11:08:47;;;;;;;1.10;1.00;;;24.30;57.50;;;;;;6245583;28;20033;-70
2021/08/06 11:11:58;;;;;;;1.30;1.17;;;24.30;57.50;;;;;;6243993;28;20017;-70
2021/08/06 11:15:03;;;;;;;1.40;1.27;;;24.30;57.50;;;;;;6231430;28;20026;-70
2021/08/06 11:18:03;;;;;;;1.43;1.10;;;24.30;57.50;;;;;;6244326;28;20162;-69
2021/08/06 11:21:04;;;;;;;1.73;1.40;;;24.30;57.50;;;;;;6244268;28;20436;-70
2021/08/06 11:24:04;;;;;;;1.65;1.10;;;24.30;57.50;;;;;;6244215;28;20034;-70
2021/08/06 11:27:05;;;;;;;0.80;0.80;;;24.40;57.60;;;;;;6243888;28;20519;-70
2021/08/06 11:30:08;;;;;;;1.52;1.23;;;24.40;57.60;;;;;;6242531;28;20041;-70
2021/08/06 11:33:10;;;;;;;1.35;1.10;;;24.30;57.50;;;;;;6244099;28;20094;-70
2021/08/06 11:36:15;;;;;;;1.45;1.00;;;24.30;57.50;;;;;;6244227;28;20036;-70
2021/08/06 11:39:16;;;;;;;1.42;1.20;;;24.40;57.60;;;;;;6244008;28;20040;-72
2021/08/06 11:42:24;;;;;;;1.30;1.05;;;24.40;57.70;;;;;;6243692;28;20026;-71
2021/08/06 11:45:27;;;;;;;1.55;1.05;;;24.30;57.60;;;;;;6244113;28;20060;-70
2021/08/06 11:48:28;;;;;;;1.67;1.13;;;24.40;57.70;;;;;;6243656;28;20144;-70
2021/08/06 11:51:28;;;;;;;0.90;0.90;;;24.40;57.70;;;;;;6243887;28;20482;-70
2021/08/06 11:54:29;;;;;;;1.50;1.00;;;24.40;57.70;;;;;;6244223;28;20026;-70
2021/08/06 11:58:02;;;;;;;1.65;1.05;;;24.40;58.40;;;;;;6243631;28;20045;-71
2021/08/06 12:01:03;;;;;;;1.20;1.10;;;24.40;57.70;;;;;;6231624;28;20428;-70
2021/08/06 12:04:04;;;;;;;1.10;0.90;;;24.30;57.60;;;;;;6243056;28;20033;-70
2021/08/06 12:07:05;;;;;;;0.80;0.80;;;24.30;57.70;;;;;;6243432;28;20072;-70
2021/08/06 12:10:05;;;;;;;1.40;1.20;;;24.40;57.80;;;;;;6243870;28;20057;-71
2021/08/06 12:13:14;;;;;;;1.00;0.90;;;24.40;57.80;;;;;;6241974;28;20119;-71
2021/08/06 12:16:22;;;;;;;1.13;1.00;;;24.30;57.70;;;;;;6221080;28;20026;-71
2021/08/06 12:19:22;;;;;;;0.85;0.85;;;24.30;57.70;;;;;;6243679;28;20037;-71
2021/08/06 12:22:23;;;;;;;1.45;0.90;;;24.30;57.70;;;;;;6245731;28;20032;-71
2021/08/06 12:25:23;;;;;;;1.25;1.00;;;24.30;57.70;;;;;;6248400;28;20033;-71
2021/08/06 12:28:24;;;;;;;1.33;0.90;;;24.30;57.70;;;;;;6248064;28;20071;-71
2021/08/06 12:31:29;;;;;;;0.82;0.82;;;24.30;57.70;;;;;;6248292;28;20062;-71
2021/08/06 12:34:34;;;;;;;0.80;0.80;;;24.30;57.70;;;;;;6248048;28;20075;-71
2021/08/06 12:37:37;;;;;;;;;;;24.40;57.80;;;;;;6247686;28;20119;-71
2021/08/06 12:40:42;;;;;;;1.00;0.80;;;24.40;57.80;;;;;;6248238;28;20000;-71
2021/08/06 12:43:43;;;;;;;0.80;0.80;;;24.40;57.90;;;;;;6247485;28;20323;-71
2021/08/06 12:47:01;;;;;;;0.60;0.60;;;24.30;57.80;;;;;;6248060;28;20480;-71
2021/08/06 12:50:04;;;;;;;0.88;0.80;;;24.40;57.90;;;;;;6247506;28;20053;-71
2021/08/06 12:53:09;;;;;;;1.05;0.82;;;24.30;57.80;;;;;;6247433;28;20038;-71
2021/08/06 12:56:10;;;;;;;1.20;1.10;;;24.40;57.90;;;;;;6247561;28;20049;-71
2021/08/06 12:59:21;;;;;;;1.27;0.80;;;24.30;57.80;;;;;;6247384;28;20358;-71
2021/08/06 13:02:22;;;;;;;0.80;0.60;;;24.30;57.80;;;;;;6246854;28;20041;-71
2021/08/06 13:05:23;;;;;;;1.40;1.00;;;24.30;57.80;;;;;;6247767;28;20358;-71
2021/08/06 13:08:36;;;;;;;1.05;0.90;;;24.40;57.90;;;;;;6246927;28;20120;-71
2021/08/06 13:11:37;;;;;;;0.98;0.88;;;24.30;57.90;;;;;;6246328;28;20029;-70
2021/08/06 13:14:38;;;;;;;0.80;0.80;;;24.40;57.90;;;;;;6232192;28;20052;-71
2021/08/06 13:17:39;;;;;;;0.70;0.70;;;24.30;57.90;;;;;;6225264;28;20032;-71
2021/08/06 13:20:42;;;;;;;0.80;0.80;;;24.40;58.00;;;;;;6246984;28;20545;-71
2021/08/06 13:23:42;;;;;;;1.42;1.08;;;24.30;57.90;;;;;;6246767;28;20029;-71
2021/08/06 13:26:43;;;;;;;0.90;0.80;;;24.40;58.00;;;;;;6246942;28;20037;-71
2021/08/06 13:29:43;;;;;;;1.67;0.80;;;24.40;58.00;;;;;;6246641;28;20041;-71
2021/08/06 13:32:44;;;;;;;1.13;0.90;;;24.30;57.90;;;;;;6245656;28;20424;-71
2021/08/06 13:35:44;;;;;;;1.48;1.00;;;24.40;58.00;;;;;;6246743;28;20377;-71
2021/08/06 13:38:45;;;;;;;1.10;0.90;;;24.30;57.90;;;;;;6246647;28;20024;-71
2021/08/06 13:41:46;;;;;;;0.77;0.77;;;24.30;57.90;;;;;;6247040;28;20345;-71
2021/08/06 13:44:46;;;;;;;0.57;0.57;;;24.30;57.90;;;;;;6246589;28;20030;-71
2021/08/06 13:47:47;;;;;;;0.80;0.80;;;24.30;58.00;;;;;;6246255;28;20066;-71
2021/08/06 13:50:47;;;;;;;0.60;0.60;;;24.30;58.00;;;;;;6245708;28;20041;-71
2021/08/06 13:53:48;;;;;;;0.93;0.80;;;24.30;58.00;;;;;;6245832;28;20021;-71
2021/08/06 13:56:48;;;;;;;0.73;0.73;;;24.30;58.00;;;;;;6246023;28;20088;-71
2021/08/06 13:59:49;;;;;;;0.80;0.70;;;24.30;58.00;;;;;;6245966;28;20554;-71
2021/08/06 14:02:49;;;;;;;1.00;0.90;;;24.30;58.00;;;;;;6245882;28;20021;-71
2021/08/06 14:05:50;;;;;;;0.80;0.70;;;24.30;58.00;;;;;;6245556;28;20022;-71
2021/08/06 14:08:51;;;;;;;0.60;0.60;;;24.30;58.00;;;;;;6245507;28;20029;-70
2021/08/06 14:11:51;;;;;;;0.65;0.65;;;24.40;58.10;;;;;;6245364;28;20392;-71
2021/08/06 14:14:52;;;;;;;0.50;0.50;;;24.30;58.00;;;;;;6241233;28;20061;-71
2021/08/06 14:17:53;;;;;;;0.70;0.70;;;24.30;58.70;;;;;;6246067;28;20017;-71
2021/08/06 14:20:54;;;;;;;0.70;0.60;;;24.30;58.00;;;;;;6245456;28;20033;-71
2021/08/06 14:23:54;;;;;;;0.75;0.70;;;24.40;58.10;;;;;;6245744;28;20033;-71
2021/08/06 14:26:55;;;;;;;0.80;0.80;;;24.30;58.00;;;;;;6245378;28;20032;-71
2021/08/06 14:29:55;;;;;;;0.77;0.70;;;24.30;58.00;;;;;;6245032;28;20033;-71
2021/08/06 14:32:56;;;;;;;0.60;0.60;;;24.30;58.00;;;;;;6221396;28;20099;-71
2021/08/06 14:35:56;;;;;;;0.75;0.75;;;24.30;58.00;;;;;;6239757;28;20136;-71
2021/08/06 14:38:57;;;;;;;0.77;0.60;;;24.40;58.10;;;;;;6240704;28;20407;-72
2021/08/06 14:41:57;;;;;;;0.95;0.70;;;24.30;58.00;;;;;;6238987;28;20057;-71
2021/08/06 14:44:58;;;;;;;1.20;0.50;;;24.30;58.10;;;;;;6239955;28;20104;-72
2021/08/06 14:47:58;;;;;;;1.58;0.82;;;24.30;58.10;;;;;;6243465;28;20267;-71
2021/08/06 14:50:59;;;;;;;1.67;0.80;;;24.30;57.60;;;;;;6238883;28;20033;-71
2021/08/06 14:54:00;;;;;;;7.13;4.22;;;24.30;57.30;;;;;;6242074;28;20449;-71
2021/08/06 14:57:04;;;;;;;8.90;4.30;;;24.30;55.50;;;;;;6240764;28;20053;-71
2021/08/06 15:00:06;;;;;;;8.25;3.65;;;24.40;54.20;;;;;;6223244;28;20026;-71
2021/08/06 15:03:06;;;;;;;6.80;2.85;;;24.30;52.60;;;;;;6227842;28;20147;-71
2021/08/06 15:06:07;;;;;;;3.80;2.17;;;24.30;52.20;;;;;;6256959;28;20067;-71
2021/08/06 15:09:08;;;;;;;3.80;1.60;;;24.40;54.60;;;;;;6249901;28;20034;-71
2021/08/06 15:12:08;;;;;;;2.33;1.70;;;24.30;53.00;;;;;;6224507;28;20030;-71
2021/08/06 15:15:10;;;;;;;1.88;1.40;;;24.40;54.20;;;;;;6234252;28;20022;-71
2021/08/06 15:18:10;;;;;;;4.03;1.95;;;24.30;54.60;;;;;;6241648;28;20048;-72
2021/08/06 15:21:11;;;;;;;7.35;1.50;;;24.30;54.10;;;;;;6240305;28;20396;-71
2021/08/06 15:24:12;;;;;;;2.47;1.50;;;24.30;51.40;;;;;;6241144;28;20088;-71
2021/08/06 15:27:15;;;;;;;3.85;1.67;;;24.40;54.00;;;;;;6240545;28;20064;-72
2021/08/06 15:30:17;;;;;;;2.38;1.65;;;24.40;51.70;;;;;;6241374;28;20557;-71
2021/08/06 15:33:17;;;;;;;3.47;1.38;;;24.30;52.60;;;;;;6241412;28;20018;-72
2021/08/06 15:36:18;;;;;;;3.53;1.52;;;24.40;51.90;;;;;;6240667;28;20068;-72
2021/08/06 15:39:18;;;;;;;2.33;1.50;;;24.40;53.50;;;;;;6241023;28;20022;-71
2021/08/06 15:42:19;;;;;;;2.80;1.77;;;24.40;51.30;;;;;;6240126;28;20034;-71
2021/08/06 15:45:19;;;;;;;3.95;1.50;;;24.40;51.80;;;;;;6241645;28;20451;-71
2021/08/06 15:48:20;;;;;;;3.63;1.45;;;24.40;53.20;;;;;;6239663;28;20029;-71
2021/08/06 15:51:21;;;;;;;3.65;1.50;;;24.30;51.80;;;;;;6239961;28;20076;-71
2021/08/06 15:54:21;;;;;;;1.60;1.33;;;24.30;53.00;;;;;;6240372;28;20038;-71